createdAt,value
2019-02-16T00:00:02.851Z,20.08
2019-02-16T00:02:33.166Z,18.02
2019-02-16T00:05:01.972Z,19.23
2019-02-16T00:07:30.715Z,20.30
2019-02-16T00:09:59.465Z,22.87
2019-02-16T00:12:29.627Z,19.48
2019-02-16T00:14:58.372Z,19.55
2019-02-16T00:17:27.146Z,20.20
2019-02-16T00:19:55.957Z,18.17
2019-02-16T00:22:24.805Z,18.00
2019-02-16T00:24:53.873Z,20.62
2019-02-16T00:27:23.086Z,19.17
2019-02-16T00:29:51.831Z,23.70
2019-02-16T00:32:20.575Z,20.00
2019-02-16T00:34:49.307Z,19.42
2019-02-16T00:37:18.108Z,22.67
2019-02-16T00:39:46.959Z,21.42
2019-02-16T00:42:15.767Z,26.68
2019-02-16T00:44:44.534Z,20.90
2019-02-16T00:47:13.273Z,26.45
2019-02-16T00:49:42.018Z,23.18
2019-02-16T00:52:10.815Z,22.37
2019-02-16T00:54:39.595Z,21.05
2019-02-16T00:57:08.367Z,18.98
2019-02-16T00:59:37.128Z,19.65
2019-02-16T01:02:05.879Z,21.93
2019-02-16T01:04:34.650Z,24.57
2019-02-16T01:07:03.391Z,22.42
2019-02-16T01:09:32.142Z,22.10
2019-02-16T01:12:00.873Z,24.55
2019-02-16T01:14:29.596Z,24.32
2019-02-16T01:16:58.346Z,20.62
2019-02-16T01:19:27.207Z,19.62
2019-02-16T01:21:55.938Z,22.87
2019-02-16T01:24:24.722Z,23.55
2019-02-16T01:26:53.526Z,22.00
2019-02-16T01:29:22.248Z,22.55
2019-02-16T01:31:51.063Z,20.80
2019-02-16T01:34:19.966Z,22.98
2019-02-16T01:36:48.829Z,22.85
2019-02-16T01:39:17.716Z,24.37
2019-02-16T01:41:47.610Z,22.95
2019-02-16T01:44:16.949Z,22.52
2019-02-16T01:46:45.862Z,23.02
2019-02-16T01:49:14.684Z,23.22
2019-02-16T01:51:43.409Z,24.77
2019-02-16T01:54:12.224Z,24.67
2019-02-16T01:56:41.188Z,26.90
2019-02-16T01:59:10.080Z,26.97
2019-02-16T02:01:39.227Z,26.15
2019-02-16T02:04:08.310Z,26.87
2019-02-16T02:06:37.299Z,25.82
2019-02-16T02:09:06.389Z,25.80
2019-02-16T02:11:35.356Z,23.80
2019-02-16T02:14:04.322Z,29.10
2019-02-16T02:16:33.304Z,24.50
2019-02-16T02:19:02.277Z,25.23
2019-02-16T02:21:31.157Z,28.52
2019-02-16T02:24:00.162Z,28.45
2019-02-16T02:26:29.301Z,27.32
2019-02-16T02:28:58.438Z,25.55
2019-02-16T02:31:27.386Z,24.65
2019-02-16T02:33:56.387Z,28.32
2019-02-16T02:36:25.273Z,28.38
2019-02-16T02:38:54.355Z,25.65
2019-02-16T02:41:23.450Z,26.60
2019-02-16T02:43:52.377Z,31.10
2019-02-16T02:46:24.223Z,26.60
2019-02-16T02:48:53.196Z,31.40
2019-02-16T02:51:25.169Z,27.62
2019-02-16T02:53:54.414Z,27.22
2019-02-16T02:56:25.633Z,26.00
2019-02-16T02:58:54.596Z,28.10
2019-02-16T03:01:23.522Z,28.73
2019-02-16T03:03:52.490Z,27.15
2019-02-16T03:06:21.468Z,27.62
2019-02-16T03:08:50.520Z,28.80
2019-02-16T03:11:19.517Z,25.20
2019-02-16T03:13:48.505Z,26.02
2019-02-16T03:16:17.398Z,27.70
2019-02-16T03:18:46.461Z,24.50
2019-02-16T03:21:15.502Z,27.85
2019-02-16T03:23:44.491Z,29.55
2019-02-16T03:26:31.453Z,31.93
2019-02-16T03:29:11.513Z,27.42
2019-02-16T03:32:09.077Z,25.23
2019-02-16T03:35:20.638Z,31.62
2019-02-16T03:38:18.571Z,27.50
2019-02-16T03:40:48.863Z,28.62
2019-02-16T03:43:17.933Z,28.05
2019-02-16T03:45:46.872Z,30.05
2019-02-16T03:48:15.804Z,28.42
2019-02-16T03:50:44.672Z,27.82
2019-02-16T03:53:13.716Z,30.15
2019-02-16T03:55:42.744Z,28.32
2019-02-16T03:58:11.808Z,31.20
2019-02-16T04:00:41.677Z,30.32
2019-02-16T04:03:10.645Z,29.12
2019-02-16T04:05:39.585Z,29.75
2019-02-16T04:08:08.491Z,31.62
2019-02-16T04:10:37.342Z,30.43
2019-02-16T04:13:06.285Z,28.85
2019-02-16T04:15:35.298Z,27.80
2019-02-16T04:18:04.226Z,31.17
2019-02-16T04:20:33.066Z,26.37
2019-02-16T04:23:01.967Z,30.68
2019-02-16T04:25:30.811Z,25.95
2019-02-16T04:27:59.705Z,29.77
2019-02-16T04:30:28.633Z,27.80
2019-02-16T04:32:57.487Z,29.12
2019-02-16T04:35:29.015Z,26.15
2019-02-16T04:37:58.004Z,29.77
2019-02-16T04:40:26.902Z,30.62
2019-02-16T04:42:55.824Z,29.60
2019-02-16T04:45:24.729Z,37.40
2019-02-16T04:47:53.618Z,28.50
2019-02-16T04:50:25.182Z,30.55
2019-02-16T04:52:54.227Z,29.87
2019-02-16T04:55:25.283Z,29.52
2019-02-16T04:57:54.267Z,36.48
2019-02-16T05:00:26.986Z,32.17
2019-02-16T05:06:02.627Z,35.68
2019-02-16T05:08:33.498Z,31.87
2019-02-16T05:11:02.247Z,29.63
2019-02-16T05:13:31.198Z,33.10
2019-02-16T05:16:00.034Z,30.37
2019-02-16T05:18:28.887Z,33.45
2019-02-16T05:20:57.629Z,30.90
2019-02-16T05:23:26.470Z,33.53
2019-02-16T05:25:55.251Z,31.35
2019-02-16T05:28:24.136Z,33.53
2019-02-16T05:30:52.891Z,34.03
2019-02-16T05:33:21.691Z,34.08
2019-02-16T05:35:50.708Z,32.08
2019-02-16T05:38:19.494Z,28.25
2019-02-16T05:40:48.322Z,32.50
2019-02-16T05:43:17.111Z,28.15
2019-02-16T05:45:45.986Z,32.80
2019-02-16T05:48:14.823Z,30.97
2019-02-16T05:50:43.567Z,30.48
2019-02-16T05:53:12.505Z,28.73
2019-02-16T05:55:41.505Z,30.55
2019-02-16T05:58:10.559Z,30.95
2019-02-16T06:00:39.527Z,30.72
2019-02-16T06:03:08.556Z,31.12
2019-02-16T06:05:37.384Z,31.70
2019-02-16T06:08:06.273Z,31.12
2019-02-16T06:10:35.050Z,33.08
2019-02-16T06:13:03.921Z,33.58
2019-02-16T06:15:32.875Z,31.33
2019-02-16T06:18:01.627Z,29.25
2019-02-16T06:20:30.464Z,31.77
2019-02-16T06:23:04.230Z,29.48
2019-02-16T06:25:30.923Z,30.05
2019-02-16T06:27:59.943Z,33.10
2019-02-16T06:30:28.694Z,28.87
2019-02-16T06:32:58.019Z,30.25
2019-02-16T06:35:39.572Z,32.60
2019-02-16T06:38:08.855Z,35.33
2019-02-16T06:40:37.581Z,31.00
2019-02-16T06:43:06.340Z,31.42
2019-02-16T06:45:36.926Z,31.40
2019-02-16T06:48:05.797Z,32.73
2019-02-16T06:50:36.937Z,34.15
2019-02-16T06:53:12.888Z,32.03
2019-02-16T06:55:57.614Z,33.90
2019-02-16T06:58:26.362Z,34.25
2019-02-16T07:00:57.094Z,29.85
2019-02-16T07:03:25.573Z,35.75
2019-02-16T07:05:54.703Z,31.20
2019-02-16T07:08:23.485Z,33.45
2019-02-16T07:10:52.232Z,35.75
2019-02-16T07:13:21.390Z,34.18
2019-02-16T07:16:08.098Z,37.48
2019-02-16T07:18:45.397Z,32.23
2019-02-16T07:21:14.335Z,34.63
2019-02-16T07:23:43.107Z,31.68
2019-02-16T07:26:11.923Z,33.10
2019-02-16T07:28:42.839Z,32.40
2019-02-16T07:31:11.566Z,33.92
2019-02-16T07:33:40.383Z,35.17
2019-02-16T07:36:09.343Z,35.60
2019-02-16T07:38:38.171Z,35.40
2019-02-16T07:41:06.906Z,33.53
2019-02-16T07:43:57.471Z,33.63
2019-02-16T07:46:48.666Z,38.08
2019-02-16T07:49:28.138Z,33.08
2019-02-16T07:52:07.352Z,32.63
2019-02-16T07:55:04.434Z,37.55
2019-02-16T07:57:55.554Z,37.08
2019-02-16T08:00:46.830Z,35.58
2019-02-16T08:03:33.667Z,35.13
2019-02-16T08:06:13.072Z,34.40
2019-02-16T08:09:00.186Z,32.08
2019-02-16T08:11:44.714Z,37.80
2019-02-16T08:14:45.718Z,35.45
2019-02-16T08:17:42.747Z,33.78
2019-02-16T08:20:29.931Z,31.80
2019-02-16T08:23:39.982Z,35.50
2019-02-16T08:26:12.984Z,30.50
2019-02-16T08:28:55.654Z,34.45
2019-02-16T08:31:37.514Z,36.15
2019-02-16T08:34:21.604Z,31.95
2019-02-16T08:36:56.948Z,35.40
2019-02-16T08:39:50.021Z,35.65
2019-02-16T08:42:37.447Z,35.98
2019-02-16T08:45:16.858Z,34.03
2019-02-16T08:48:07.891Z,31.20
2019-02-16T08:51:14.274Z,35.78
2019-02-16T08:54:20.055Z,33.15
2019-02-16T08:57:14.069Z,31.90
2019-02-16T08:59:54.832Z,37.83
2019-02-16T09:02:31.625Z,33.48
2019-02-16T09:05:07.341Z,31.35
2019-02-16T09:08:02.475Z,35.10
2019-02-16T09:10:42.361Z,34.83
2019-02-16T09:13:36.388Z,33.38
2019-02-16T09:16:27.196Z,34.08
2019-02-16T09:19:06.529Z,36.65
2019-02-16T09:21:57.749Z,38.05
2019-02-16T09:24:47.807Z,31.33
2019-02-16T09:27:54.155Z,35.30
2019-02-16T09:30:42.754Z,36.58
2019-02-16T09:33:36.317Z,32.40
2019-02-16T09:36:16.071Z,30.95
2019-02-16T09:39:13.299Z,29.12
2019-02-16T09:41:50.150Z,31.27
2019-02-16T09:44:27.952Z,29.57
2019-02-16T09:47:17.947Z,33.42
2019-02-16T09:50:00.342Z,30.45
2019-02-16T09:52:39.388Z,31.05
2019-02-16T09:55:33.115Z,28.35
2019-02-16T09:58:19.970Z,31.87
2019-02-16T10:01:07.754Z,28.47
2019-02-16T10:04:01.494Z,28.90
2019-02-16T10:06:48.107Z,30.50
2019-02-16T10:09:42.496Z,31.90
2019-02-16T10:12:29.568Z,32.45
2019-02-16T10:15:12.559Z,28.90
2019-02-16T10:18:18.534Z,31.40
2019-02-16T10:21:00.695Z,31.20
2019-02-16T10:23:49.870Z,30.13
2019-02-16T10:26:36.602Z,30.43
2019-02-16T10:29:27.206Z,29.40
2019-02-16T10:32:10.730Z,29.55
2019-02-16T10:34:58.940Z,30.37
2019-02-16T10:37:35.123Z,31.73
2019-02-16T10:40:33.337Z,29.97
2019-02-16T10:43:19.208Z,29.63
2019-02-16T10:46:14.091Z,32.07
2019-02-16T10:48:49.166Z,32.50
2019-02-16T10:51:23.857Z,30.83
2019-02-16T10:54:10.597Z,28.73
2019-02-16T10:56:49.991Z,30.67
2019-02-16T10:59:38.196Z,35.90
2019-02-16T11:02:16.319Z,30.20
2019-02-16T11:05:03.246Z,32.37
2019-02-16T11:07:54.364Z,29.27
2019-02-16T11:10:34.779Z,32.67
2019-02-16T11:13:25.390Z,29.90
2019-02-16T11:16:12.930Z,32.60
2019-02-16T11:19:11.218Z,32.43
2019-02-16T11:22:17.658Z,30.50
2019-02-16T11:25:04.207Z,28.80
2019-02-16T11:27:57.551Z,29.70
2019-02-16T11:30:38.224Z,33.50
2019-02-16T11:33:26.246Z,30.17
2019-02-16T11:36:13.384Z,31.50
2019-02-16T11:38:58.835Z,29.13
2019-02-16T11:41:38.780Z,27.80
2019-02-16T11:44:38.760Z,34.77
2019-02-16T11:47:15.115Z,32.97
2019-02-16T11:50:12.230Z,32.77
2019-02-16T11:53:01.850Z,29.67
2019-02-16T11:56:08.089Z,25.93
2019-02-16T11:58:55.335Z,27.57
2019-02-16T12:01:58.733Z,29.93
2019-02-16T12:04:36.242Z,27.63
2019-02-16T12:07:26.110Z,28.77
2019-02-16T12:10:15.703Z,28.23
2019-02-16T12:13:10.411Z,31.13
2019-02-16T12:16:04.418Z,29.47
2019-02-16T12:19:04.702Z,28.70
2019-02-16T12:21:55.271Z,24.70
2019-02-16T12:24:41.963Z,32.37
2019-02-16T12:27:35.791Z,31.97
2019-02-16T12:30:31.471Z,29.73
2019-02-16T12:33:12.946Z,28.17
2019-02-16T12:35:49.174Z,29.20
2019-02-16T12:38:32.398Z,30.13
2019-02-16T12:41:09.606Z,31.60
2019-02-16T12:44:03.778Z,31.53
2019-02-16T12:46:47.253Z,28.00
2019-02-16T12:49:33.810Z,29.50
2019-02-16T12:52:20.222Z,29.53
2019-02-16T12:54:55.989Z,29.20
2019-02-16T12:57:41.699Z,31.40
2019-02-16T13:00:30.346Z,28.53
2019-02-16T13:03:14.534Z,29.43
2019-02-16T13:05:53.962Z,31.10
2019-02-16T13:08:31.059Z,35.80
2019-02-16T13:11:09.136Z,29.90
2019-02-16T13:14:10.258Z,31.77
2019-02-16T13:17:03.426Z,29.43
2019-02-16T13:19:42.117Z,31.47
2019-02-16T13:22:22.822Z,33.50
2019-02-16T13:25:00.841Z,28.00
2019-02-16T13:27:53.683Z,31.67
2019-02-16T13:30:53.902Z,29.23
2019-02-16T13:33:47.701Z,33.07
2019-02-16T13:36:34.795Z,27.80
2019-02-16T13:39:21.422Z,30.30
2019-02-16T13:42:08.209Z,29.67
2019-02-16T13:45:14.558Z,26.90
2019-02-16T13:47:51.172Z,28.90
2019-02-16T13:50:42.470Z,32.07
2019-02-16T13:53:30.378Z,29.50
2019-02-16T13:56:21.415Z,29.53
2019-02-16T13:59:24.735Z,32.00
2019-02-16T14:02:15.310Z,32.83
2019-02-16T14:04:57.930Z,29.67
2019-02-16T14:07:47.097Z,29.83
2019-02-16T14:10:22.761Z,25.90
2019-02-16T14:13:04.760Z,28.93
2019-02-16T14:15:54.646Z,28.17
2019-02-16T14:18:23.406Z,29.07
2019-02-16T14:20:53.624Z,28.10
2019-02-16T14:23:23.572Z,30.13
2019-02-16T14:25:52.464Z,28.27
2019-02-16T14:28:21.434Z,29.50
2019-02-16T14:30:50.296Z,30.37
2019-02-16T14:33:19.190Z,31.87
2019-02-16T14:35:50.424Z,34.93
2019-02-16T14:38:50.386Z,30.60
2019-02-16T14:41:19.458Z,30.47
2019-02-16T14:43:48.258Z,30.77
2019-02-16T14:46:17.175Z,28.83
2019-02-16T14:48:46.062Z,31.30
2019-02-16T14:51:14.951Z,33.07
2019-02-16T14:53:44.146Z,31.27
2019-02-16T14:56:13.158Z,36.43
2019-02-16T14:58:41.952Z,32.47
2019-02-16T15:01:10.844Z,32.30
2019-02-16T15:03:41.779Z,32.77
2019-02-16T15:06:10.847Z,30.77
2019-02-16T15:08:39.706Z,35.77
2019-02-16T15:11:08.411Z,31.17
2019-02-16T15:13:37.178Z,29.03
2019-02-16T15:16:06.062Z,30.93
2019-02-16T15:18:35.250Z,30.00
2019-02-16T15:21:04.056Z,32.93
2019-02-16T15:23:34.346Z,37.87
2019-02-16T15:26:03.122Z,31.77
2019-02-16T15:28:32.083Z,34.33
2019-02-16T15:31:00.821Z,35.77
2019-02-16T15:33:29.626Z,38.50
2019-02-16T15:35:58.360Z,35.30
2019-02-16T15:38:27.078Z,33.23
2019-02-16T15:40:55.941Z,34.97
2019-02-16T15:43:24.658Z,33.47
2019-02-16T15:45:53.381Z,37.07
2019-02-16T15:48:22.210Z,36.53
2019-02-16T15:50:50.967Z,34.50
2019-02-16T15:53:19.670Z,35.37
2019-02-16T15:55:48.409Z,37.43
2019-02-16T15:58:17.221Z,36.80
2019-02-16T16:00:46.064Z,38.43
2019-02-16T16:03:15.650Z,38.00
2019-02-16T16:05:44.352Z,39.13
2019-02-16T16:08:31.098Z,36.33
2019-02-16T16:11:09.485Z,37.13
2019-02-16T16:13:57.302Z,40.40
2019-02-16T16:16:41.866Z,34.30
2019-02-16T16:19:38.730Z,37.10
2019-02-16T16:22:28.194Z,38.00
2019-02-16T16:25:19.111Z,39.07
2019-02-16T16:28:06.903Z,40.37
2019-02-16T16:31:03.687Z,38.97
2019-02-16T16:34:06.841Z,42.20
2019-02-16T16:36:54.738Z,42.80
2019-02-16T16:39:38.568Z,37.33
2019-02-16T16:42:44.096Z,41.40
2019-02-16T16:45:47.406Z,40.87
2019-02-16T16:48:24.559Z,40.20
2019-02-16T16:50:59.829Z,49.03
2019-02-16T16:53:38.928Z,39.97
2019-02-16T16:56:28.742Z,42.90
2019-02-16T16:59:14.027Z,47.03
2019-02-16T17:01:59.883Z,43.70
2019-02-16T17:04:38.831Z,44.70
2019-02-16T17:07:33.037Z,43.40
2019-02-16T17:10:23.921Z,43.87
2019-02-16T17:13:17.486Z,44.87
2019-02-16T17:16:17.774Z,47.77
2019-02-16T17:18:57.025Z,45.93
2019-02-16T17:21:59.695Z,47.90
2019-02-16T17:24:35.837Z,42.10
2019-02-16T17:27:33.968Z,47.23
2019-02-16T17:30:37.001Z,46.00
2019-02-16T17:33:23.683Z,42.60
2019-02-16T17:36:23.614Z,44.73
2019-02-16T17:39:10.098Z,44.47
2019-02-16T17:41:45.099Z,44.83
2019-02-16T17:44:32.163Z,49.33
2019-02-16T17:47:35.338Z,46.53
2019-02-16T17:50:12.707Z,48.13
2019-02-16T17:53:11.978Z,49.18
2019-02-16T17:55:48.853Z,58.83
2019-02-16T17:58:31.794Z,56.08
2019-02-16T18:01:14.192Z,51.10
2019-02-16T18:04:02.244Z,53.10
2019-02-16T18:06:53.417Z,46.17
2019-02-16T18:09:45.797Z,52.08
2019-02-16T18:12:39.762Z,51.20
2019-02-16T18:15:34.192Z,46.37
2019-02-16T18:18:34.785Z,46.10
2019-02-16T18:21:22.725Z,47.53
2019-02-16T18:24:13.754Z,47.23
2019-02-16T18:27:01.933Z,45.43
2019-02-16T18:29:56.322Z,48.63
2019-02-16T18:32:44.415Z,47.43
2019-02-16T18:35:42.007Z,47.40
2019-02-16T18:38:29.409Z,48.00
2019-02-16T18:41:29.795Z,52.40
2019-02-16T18:44:23.747Z,46.88
2019-02-16T18:47:10.786Z,47.95
2019-02-16T18:49:57.416Z,47.48
2019-02-16T18:52:57.748Z,46.18
2019-02-16T18:55:45.564Z,53.23
2019-02-16T18:58:29.965Z,57.30
2019-02-16T19:01:16.572Z,67.03
2019-02-16T19:03:58.083Z,45.48
2019-02-16T19:06:43.754Z,50.52
2019-02-16T19:09:21.839Z,49.85
2019-02-16T19:12:18.904Z,45.50
2019-02-16T19:14:59.870Z,53.70
2019-02-16T19:17:38.491Z,47.38
2019-02-16T19:20:25.676Z,53.20
2019-02-16T19:23:13.458Z,62.67
2019-02-16T19:26:06.759Z,54.83
2019-02-16T19:28:46.143Z,56.55
2019-02-16T19:31:40.086Z,47.70
2019-02-16T19:34:26.952Z,52.05
2019-02-16T19:37:21.067Z,50.80
2019-02-16T19:40:27.287Z,54.80
2019-02-16T19:43:13.478Z,55.03
2019-02-16T19:45:56.662Z,54.40
2019-02-16T19:48:40.923Z,49.05
2019-02-16T19:51:27.603Z,53.33
2019-02-16T19:54:14.486Z,56.85
2019-02-16T19:57:05.434Z,52.15
2019-02-16T19:59:42.866Z,50.08
2019-02-16T20:02:24.894Z,46.73
2019-02-16T20:05:24.854Z,50.87
2019-02-16T20:08:15.385Z,50.30
2019-02-16T20:10:50.406Z,46.05
2019-02-16T20:13:25.816Z,48.78
2019-02-16T20:16:04.574Z,46.73
2019-02-16T20:18:52.372Z,52.20
2019-02-16T20:21:38.114Z,50.17
2019-02-16T20:24:18.768Z,56.50
2019-02-16T20:27:18.926Z,54.08
2019-02-16T20:29:56.229Z,55.70
2019-02-16T20:32:33.460Z,53.68
2019-02-16T20:35:22.087Z,50.63
2019-02-16T20:38:07.702Z,53.05
2019-02-16T20:40:46.958Z,51.60
2019-02-16T20:43:37.582Z,48.13
2019-02-16T20:46:25.610Z,49.10
2019-02-16T20:49:16.792Z,47.10
2019-02-16T20:52:00.351Z,50.03
2019-02-16T20:54:42.510Z,51.58
2019-02-16T20:57:30.320Z,54.13
2019-02-16T21:00:16.930Z,53.45
2019-02-16T21:03:23.098Z,51.37
2019-02-16T21:06:07.362Z,50.15
2019-02-16T21:09:04.455Z,44.53
2019-02-16T21:11:41.312Z,52.08
2019-02-16T21:14:19.789Z,59.30
2019-02-16T21:17:04.858Z,50.40
2019-02-16T21:19:51.522Z,52.25
2019-02-16T21:22:38.318Z,55.63
2019-02-16T21:25:24.038Z,53.95
2019-02-16T21:28:10.726Z,60.90
2019-02-16T21:30:58.306Z,60.48
2019-02-16T21:33:46.171Z,61.15
2019-02-16T21:36:34.082Z,61.45
2019-02-16T21:39:25.759Z,54.13
2019-02-16T21:42:16.421Z,59.95
2019-02-16T21:45:01.576Z,64.60
2019-02-16T21:47:55.332Z,64.60
2019-02-16T21:50:46.015Z,57.00
2019-02-16T21:53:50.327Z,54.53
2019-02-16T21:56:31.243Z,58.38
2019-02-16T21:59:19.669Z,58.10
2019-02-16T22:02:06.620Z,54.25
2019-02-16T22:04:48.687Z,58.68
2019-02-16T22:07:35.191Z,54.08
2019-02-16T22:10:38.114Z,56.55
2019-02-16T22:13:06.044Z,60.15
2019-02-16T22:15:35.228Z,64.53
2019-02-16T22:18:05.791Z,70.72
2019-02-16T22:20:34.566Z,63.70
2019-02-16T22:23:03.460Z,65.08
2019-02-16T22:25:32.275Z,70.62
2019-02-16T22:28:01.053Z,68.42
2019-02-16T22:30:29.826Z,64.55
2019-02-16T22:32:58.615Z,69.20
2019-02-16T22:35:27.493Z,70.85
2019-02-16T22:37:56.222Z,63.15
2019-02-16T22:40:24.952Z,64.22
2019-02-16T22:42:53.679Z,68.80
2019-02-16T22:45:29.160Z,63.35
2019-02-16T22:47:57.921Z,72.10
2019-02-16T22:50:29.417Z,69.07
2019-02-16T22:52:58.206Z,70.95
2019-02-16T22:55:27.114Z,69.60
2019-02-16T22:57:55.869Z,72.67
2019-02-16T23:00:42.540Z,70.37
2019-02-16T23:03:11.300Z,69.12
2019-02-16T23:05:40.206Z,68.37
2019-02-16T23:08:09.130Z,68.92
2019-02-16T23:10:37.889Z,68.17
2019-02-16T23:13:06.726Z,72.25
2019-02-16T23:15:35.757Z,69.42
2019-02-16T23:18:04.518Z,66.80
2019-02-16T23:20:33.343Z,71.10
2019-02-16T23:23:02.186Z,69.95
2019-02-16T23:25:30.954Z,65.50
2019-02-16T23:27:59.723Z,68.07
2019-02-16T23:30:28.491Z,68.33
2019-02-16T23:32:57.287Z,72.50
2019-02-16T23:35:26.946Z,69.75
2019-02-16T23:37:55.829Z,70.15
2019-02-16T23:40:24.767Z,65.03
2019-02-16T23:42:53.507Z,67.72
2019-02-16T23:45:22.372Z,62.23
2019-02-16T23:47:51.111Z,67.17
2019-02-16T23:50:19.836Z,74.25
2019-02-16T23:52:48.782Z,78.92
2019-02-16T23:55:17.494Z,84.60
2019-02-16T23:57:46.199Z,99.50
